Terminal Aerodrome Forecast
Issued by NWS Sioux Falls, SD

Home | Current Version | Previous Version | Text Only | Print | Product List | Glossary On
Versions: 1 2 3 4 5 6 7 8 9 10 11 12 13 14
959
FTUS43 KFSD 210520
TAFHON
TAF
KHON 210520Z 2106/2206 VRB05KT 6SM -SHRA OVC090
     FM210800 33009KT P6SM VCSH OVC080
     FM211200 32009KT P6SM OVC100
     FM212200 05007KT P6SM OVC140
     FM220000 08006KT P6SM BKN120=

USA.gov is the U.S. government's official web portal to all federal, state and local government web resources and services.